Time;durP1;ratioP1;P1;durP2;ratioP2;P2;SDS_P1;SDS_P2;PMS_P1;PMS_P2;Temp;Humidity;BMP_temperature;BMP_pressure;BME280_temperature;BME280_humidity;BME280_pressure;Samples;Min_cycle;Max_cycle;Signal;HPM_P1;HPM_P2
2022/12/03 00:01:54;;;;;;;21.97;13.70;;;1.90;99.90;;;;;;4956891;28;20228;-76
2022/12/03 00:04:21;;;;;;;23.30;13.47;;;1.90;99.90;;;;;;4956477;28;20664;-76
2022/12/03 00:06:47;;;;;;;22.90;13.57;;;1.90;99.90;;;;;;4961266;28;20236;-75
2022/12/03 00:09:14;;;;;;;22.73;13.47;;;1.80;99.90;;;;;;4962296;28;20222;-76
2022/12/03 00:11:41;;;;;;;24.03;13.40;;;1.80;99.90;;;;;;4957011;28;20268;-76
2022/12/03 00:14:08;;;;;;;20.90;12.83;;;1.80;99.90;;;;;;4960657;28;21975;-76
2022/12/03 00:16:36;;;;;;;22.53;12.53;;;1.80;99.90;;;;;;4957679;28;20758;-76
2022/12/03 00:19:02;;;;;;;20.83;13.17;;;1.70;99.90;;;;;;4960399;28;20748;-76
2022/12/03 00:21:29;;;;;;;21.93;12.60;;;1.70;99.90;;;;;;4957635;28;20223;-76
2022/12/03 00:23:56;;;;;;;23.47;12.73;;;1.70;99.90;;;;;;4955972;28;20218;-76
2022/12/03 00:26:22;;;;;;;23.57;13.10;;;1.70;99.90;;;;;;4959529;28;20227;-76
2022/12/03 00:28:50;;;;;;;22.07;13.43;;;1.70;99.90;;;;;;4959409;28;20783;-76
2022/12/03 00:31:17;;;;;;;24.00;13.33;;;1.70;99.90;;;;;;4954905;28;20671;-76
2022/12/03 00:33:45;;;;;;;21.27;13.40;;;1.70;99.90;;;;;;4961365;28;20238;-76
2022/12/03 00:36:12;;;;;;;23.13;13.43;;;1.70;99.90;;;;;;4962863;28;20234;-76
2022/12/03 00:38:39;;;;;;;23.17;13.20;;;1.60;99.90;;;;;;4958343;28;20254;-77
2022/12/03 00:41:06;;;;;;;21.10;12.53;;;1.60;99.90;;;;;;4956238;28;20745;-76
2022/12/03 00:43:33;;;;;;;22.40;12.97;;;1.60;99.90;;;;;;4954710;28;20223;-76
2022/12/03 00:45:59;;;;;;;22.43;12.30;;;1.60;99.90;;;;;;4954953;28;20260;-76
2022/12/03 00:48:26;;;;;;;23.80;13.17;;;1.60;99.90;;;;;;4961141;28;20224;-76
2022/12/03 00:50:54;;;;;;;25.57;13.10;;;1.60;99.90;;;;;;4957385;28;20250;-76
2022/12/03 00:53:21;;;;;;;22.60;13.37;;;1.60;99.90;;;;;;4958612;28;20233;-76
2022/12/03 00:55:49;;;;;;;21.90;13.07;;;1.50;99.90;;;;;;4961871;28;20237;-76
2022/12/03 00:58:16;;;;;;;21.43;13.23;;;1.50;99.90;;;;;;4956992;28;20237;-76
2022/12/03 01:00:42;;;;;;;24.30;13.20;;;1.50;99.90;;;;;;4955046;28;20240;-76
2022/12/03 01:03:09;;;;;;;22.97;14.00;;;1.50;99.90;;;;;;4957133;28;20222;-76
2022/12/03 01:05:36;;;;;;;25.37;14.47;;;1.40;99.90;;;;;;4958496;28;20297;-77
2022/12/03 01:08:04;;;;;;;28.67;15.17;;;1.40;99.90;;;;;;4959554;28;20227;-77
2022/12/03 01:10:31;;;;;;;25.13;14.17;;;1.40;99.90;;;;;;4958351;28;20229;-77
2022/12/03 01:12:58;;;;;;;24.67;14.40;;;1.40;99.90;;;;;;4953148;28;20257;-77
2022/12/03 01:15:25;;;;;;;26.13;14.17;;;1.40;99.90;;;;;;4958125;28;20832;-77
2022/12/03 01:17:53;;;;;;;23.63;13.60;;;1.30;99.90;;;;;;4960844;28;20313;-77
2022/12/03 01:20:20;;;;;;;25.07;14.13;;;1.30;99.90;;;;;;4961372;28;20217;-77
2022/12/03 01:22:47;;;;;;;24.10;14.00;;;1.30;99.90;;;;;;4956999;28;20234;-77
2022/12/03 01:25:15;;;;;;;22.40;13.57;;;1.30;99.90;;;;;;4957378;28;20227;-77
2022/12/03 01:27:42;;;;;;;25.87;14.70;;;1.30;99.90;;;;;;4958291;28;20244;-77
2022/12/03 01:30:11;;;;;;;26.40;14.70;;;1.30;99.90;;;;;;4960592;28;20249;-76
2022/12/03 01:32:37;;;;;;;26.90;14.13;;;1.30;99.90;;;;;;4958984;28;20788;-76
2022/12/03 01:35:05;;;;;;;26.60;14.83;;;1.30;99.90;;;;;;4955575;28;20306;-76
2022/12/03 01:37:31;;;;;;;26.30;14.40;;;1.30;99.90;;;;;;4964612;28;20226;-76
2022/12/03 01:39:58;;;;;;;26.37;14.77;;;1.30;99.90;;;;;;4954230;28;20658;-75
2022/12/03 01:42:29;;;;;;;25.77;14.07;;;1.30;99.90;;;;;;4960142;28;20230;-76
2022/12/03 01:44:57;;;;;;;26.83;15.00;;;1.30;99.90;;;;;;4960762;28;20569;-77
2022/12/03 01:47:30;;;;;;;23.53;14.20;;;1.30;99.90;;;;;;4955721;28;20226;-76
2022/12/03 01:50:02;;;;;;;27.23;15.20;;;1.20;99.90;;;;;;4965658;28;20236;-76
2022/12/03 01:52:31;;;;;;;28.83;15.60;;;1.20;99.90;;;;;;4959725;28;20235;-76
2022/12/03 01:55:00;;;;;;;27.20;14.70;;;1.20;99.90;;;;;;4957496;28;20241;-76
2022/12/03 01:57:34;;;;;;;27.37;15.87;;;1.20;99.90;;;;;;4962298;28;20315;-77
2022/12/03 02:00:02;;;;;;;27.13;14.97;;;1.20;99.90;;;;;;4965968;28;20229;-76
2022/12/03 02:02:32;;;;;;;29.03;15.57;;;1.20;99.90;;;;;;4963328;28;20451;-76
2022/12/03 02:05:01;;;;;;;27.93;15.70;;;1.20;99.90;;;;;;4977427;28;20222;-77
2022/12/03 02:07:30;;;;;;;24.27;14.27;;;1.20;99.90;;;;;;4961068;28;20232;-77
2022/12/03 02:09:59;;;;;;;30.13;16.10;;;1.20;99.90;;;;;;4961328;28;20218;-77
2022/12/03 02:12:30;;;;;;;25.83;15.13;;;1.10;99.90;;;;;;4960144;28;20244;-77
2022/12/03 02:14:58;;;;;;;27.50;14.80;;;1.10;99.90;;;;;;4960783;28;20230;-76
2022/12/03 02:17:26;;;;;;;28.47;15.03;;;1.10;99.90;;;;;;4957093;28;20246;-77
2022/12/03 02:19:53;;;;;;;30.33;15.43;;;1.10;99.90;;;;;;4963621;28;20277;-77
2022/12/03 02:22:31;;;;;;;31.10;15.70;;;1.10;99.90;;;;;;4961905;28;20266;-77
2022/12/03 02:25:09;;;;;;;28.57;15.50;;;1.10;99.90;;;;;;4958482;28;20245;-76
2022/12/03 02:27:36;;;;;;;29.80;15.80;;;1.10;99.90;;;;;;4960731;28;20230;-77
2022/12/03 02:30:03;;;;;;;30.67;15.73;;;1.10;99.90;;;;;;4963082;28;20684;-76
2022/12/03 02:32:30;;;;;;;30.60;15.63;;;1.10;99.90;;;;;;4959010;28;20281;-76
2022/12/03 02:34:57;;;;;;;29.77;15.17;;;1.10;99.90;;;;;;4957902;28;20224;-76
2022/12/03 02:37:26;;;;;;;28.40;15.43;;;1.00;99.90;;;;;;4960003;28;20239;-76
2022/12/03 02:39:56;;;;;;;27.27;15.17;;;1.00;99.90;;;;;;4961798;28;20226;-76
2022/12/03 02:42:37;;;;;;;29.73;15.93;;;1.00;99.90;;;;;;4963677;28;22451;-77
2022/12/03 02:45:08;;;;;;;29.33;15.67;;;1.00;99.90;;;;;;4970311;28;20234;-77
2022/12/03 02:47:39;;;;;;;29.77;15.47;;;1.00;99.90;;;;;;4955458;28;20232;-77
2022/12/03 02:50:08;;;;;;;29.57;15.73;;;1.00;99.90;;;;;;4960330;28;20329;-77
2022/12/03 02:52:35;;;;;;;26.83;15.03;;;0.90;99.90;;;;;;4958341;28;20313;-77
2022/12/03 02:55:03;;;;;;;28.63;15.50;;;0.90;99.90;;;;;;4960661;28;20275;-76
2022/12/03 02:57:32;;;;;;;26.03;15.33;;;0.90;99.90;;;;;;4957547;28;20218;-76
2022/12/03 02:59:58;;;;;;;30.73;15.13;;;0.90;99.90;;;;;;4960723;28;20216;-76
2022/12/03 03:02:27;;;;;;;27.47;14.83;;;0.90;99.90;;;;;;4957935;28;20307;-76
2022/12/03 03:04:54;;;;;;;27.83;15.23;;;0.90;99.90;;;;;;4958467;28;20277;-76
2022/12/03 03:07:21;;;;;;;27.23;14.60;;;0.90;99.90;;;;;;4961248;28;20265;-76
2022/12/03 03:09:48;;;;;;;28.43;15.33;;;0.80;99.90;;;;;;4973125;28;20230;-76
2022/12/03 03:12:15;;;;;;;28.17;15.60;;;0.80;99.90;;;;;;4960063;28;20329;-76
2022/12/03 03:14:43;;;;;;;26.53;14.97;;;0.80;99.90;;;;;;4959131;28;20234;-76
2022/12/03 03:17:10;;;;;;;31.40;15.50;;;0.80;99.90;;;;;;4963905;28;20459;-76
2022/12/03 03:19:37;;;;;;;29.17;16.27;;;0.80;99.90;;;;;;4961948;28;20237;-76
2022/12/03 03:22:04;;;;;;;26.50;14.90;;;0.80;99.90;;;;;;4959855;28;20234;-75
2022/12/03 03:24:32;;;;;;;28.87;16.53;;;0.80;99.90;;;;;;4959913;28;20830;-75
2022/12/03 03:26:59;;;;;;;30.87;16.17;;;0.80;99.90;;;;;;4957220;28;20270;-76
2022/12/03 03:29:26;;;;;;;29.37;15.50;;;0.80;99.90;;;;;;4961671;28;20289;-76
2022/12/03 03:31:54;;;;;;;30.77;15.60;;;0.80;99.90;;;;;;4960086;28;20324;-76
2022/12/03 03:34:21;;;;;;;28.83;15.70;;;0.80;99.90;;;;;;4962886;28;20222;-76
2022/12/03 03:36:48;;;;;;;32.70;15.33;;;0.80;99.90;;;;;;4956419;28;20707;-75
2022/12/03 03:39:15;;;;;;;28.77;15.57;;;0.80;99.90;;;;;;4957341;28;20223;-75
2022/12/03 03:41:45;;;;;;;27.80;14.57;;;0.80;99.90;;;;;;4959746;28;20250;-76
2022/12/03 03:44:11;;;;;;;28.97;15.30;;;0.80;99.90;;;;;;4960728;28;20570;-76
2022/12/03 03:46:39;;;;;;;28.07;14.87;;;0.80;99.90;;;;;;4961963;28;20229;-76
2022/12/03 03:49:09;;;;;;;29.03;15.23;;;0.80;99.90;;;;;;4960788;28;20232;-77
2022/12/03 03:51:37;;;;;;;29.57;14.67;;;0.80;99.90;;;;;;4961101;28;20234;-75
2022/12/03 03:54:05;;;;;;;28.17;14.93;;;0.80;99.90;;;;;;4966078;28;20863;-75
2022/12/03 03:56:33;;;;;;;29.53;14.40;;;0.80;99.90;;;;;;4971755;28;20231;-76
2022/12/03 03:59:00;;;;;;;29.00;14.93;;;0.80;99.90;;;;;;4981276;28;20229;-76
2022/12/03 04:01:27;;;;;;;29.43;14.57;;;0.80;99.90;;;;;;4963316;28;20230;-76
2022/12/03 04:03:54;;;;;;;29.73;15.80;;;0.80;99.90;;;;;;4984231;23;20233;-78
2022/12/03 04:06:22;;;;;;;30.83;16.07;;;0.80;99.90;;;;;;4959336;28;20269;-79
2022/12/03 04:08:49;;;;;;;27.27;14.67;;;0.70;99.90;;;;;;4966076;28;20321;-79
2022/12/03 04:14:01;;;;;;;31.50;16.43;;;0.70;99.90;;;;;;4960931;28;20228;-78
2022/12/03 04:16:28;;;;;;;29.47;15.60;;;0.70;99.90;;;;;;4957150;28;20223;-79
2022/12/03 04:18:55;;;;;;;31.37;15.40;;;0.60;99.90;;;;;;4959678;28;20265;-79
2022/12/03 04:24:10;;;;;;;29.37;15.47;;;0.60;99.90;;;;;;4959772;28;20240;-79
2022/12/03 04:29:38;;;;;;;30.03;15.57;;;0.60;99.90;;;;;;4901151;29;20232;-79
2022/12/03 04:37:35;;;;;;;31.47;15.43;;;0.50;99.90;;;;;;4961986;28;20234;-79
2022/12/03 04:40:59;;;;;;;30.33;15.53;;;0.50;99.90;;;;;;4962330;28;20226;-78
2022/12/03 04:42:48;;;;;;;30.80;15.40;;;0.50;99.90;;;;;;4957562;28;20230;-78
2022/12/03 04:45:15;;;;;;;29.20;16.17;;;0.50;99.90;;;;;;4955959;28;20229;-77
2022/12/03 04:47:42;;;;;;;31.07;16.57;;;0.50;99.90;;;;;;4957639;28;20242;-79
2022/12/03 04:50:09;;;;;;;32.23;17.67;;;0.60;99.90;;;;;;4962179;28;20222;-78
2022/12/03 04:52:37;;;;;;;35.80;17.27;;;0.60;99.90;;;;;;4956369;28;20232;-78
2022/12/03 04:55:04;;;;;;;32.77;15.50;;;0.60;99.90;;;;;;4960216;28;20248;-79
2022/12/03 04:57:31;;;;;;;28.43;15.27;;;0.60;99.90;;;;;;4972656;28;20226;-78
2022/12/03 04:59:58;;;;;;;34.40;15.70;;;0.70;99.90;;;;;;4955999;28;20224;-79
2022/12/03 05:02:25;;;;;;;34.63;15.90;;;0.60;99.90;;;;;;4950017;28;20233;-80
2022/12/03 05:04:51;;;;;;;33.93;16.67;;;0.60;99.90;;;;;;4957032;28;20221;-79
2022/12/03 05:07:20;;;;;;;31.60;16.73;;;0.60;99.90;;;;;;4963232;28;20242;-79
2022/12/03 05:09:52;;;;;;;33.10;16.63;;;0.50;99.90;;;;;;4962889;28;20372;-79
2022/12/03 05:12:18;;;;;;;30.70;15.77;;;0.60;99.90;;;;;;4961860;28;20249;-79
2022/12/03 05:14:46;;;;;;;32.20;16.60;;;0.50;99.90;;;;;;4966615;28;20226;-80
2022/12/03 05:17:13;;;;;;;29.17;15.43;;;0.50;99.90;;;;;;4980823;28;20529;-80
2022/12/03 05:22:24;;;;;;;31.50;15.90;;;0.50;99.90;;;;;;4966278;28;20967;-78
2022/12/03 05:24:52;;;;;;;34.60;16.97;;;0.50;99.90;;;;;;4968943;28;20264;-79
2022/12/03 05:27:20;;;;;;;29.87;16.17;;;0.50;99.90;;;;;;4963694;28;20317;-79
2022/12/03 05:29:47;;;;;;;28.97;16.07;;;0.50;99.90;;;;;;4963169;28;20261;-81
2022/12/03 05:32:14;;;;;;;31.40;15.70;;;0.50;99.90;;;;;;4965937;28;20465;-80
2022/12/03 05:34:41;;;;;;;31.60;16.03;;;0.50;99.90;;;;;;4967939;28;20356;-81
2022/12/03 05:37:07;;;;;;;35.37;16.90;;;0.50;99.90;;;;;;4968314;28;20229;-80
2022/12/03 05:39:34;;;;;;;32.37;16.43;;;0.50;99.90;;;;;;4971215;28;21614;-80
2022/12/03 05:44:46;;;;;;;32.43;17.00;;;0.50;99.90;;;;;;4980225;28;20605;-80
2022/12/03 05:47:13;;;;;;;29.80;16.17;;;0.50;99.90;;;;;;4964538;28;20228;-80
2022/12/03 05:49:40;;;;;;;31.67;15.70;;;0.50;99.90;;;;;;4966341;28;20698;-79
2022/12/03 05:52:07;;;;;;;31.30;15.57;;;0.40;99.90;;;;;;4968138;28;20551;-80
2022/12/03 05:54:34;;;;;;;29.50;15.70;;;0.40;99.90;;;;;;4968873;28;20783;-80
2022/12/03 05:57:04;;;;;;;29.37;15.20;;;0.40;99.90;;;;;;4966395;28;20229;-80
2022/12/03 05:59:31;;;;;;;33.90;16.50;;;0.40;99.90;;;;;;4967981;28;20376;-79
2022/12/03 06:01:58;;;;;;;33.33;16.37;;;0.40;99.90;;;;;;4960646;28;20251;-79
2022/12/03 06:04:24;;;;;;;29.50;15.67;;;0.40;99.90;;;;;;4963513;28;20226;-79
2022/12/03 06:06:51;;;;;;;27.37;15.20;;;0.30;99.90;;;;;;4965057;28;20219;-79
2022/12/03 06:09:18;;;;;;;30.53;15.50;;;0.40;99.90;;;;;;4964335;28;20230;-79
2022/12/03 06:11:44;;;;;;;32.90;17.07;;;0.30;99.90;;;;;;4964207;28;20296;-80
2022/12/03 06:14:12;;;;;;;30.57;17.03;;;0.20;99.90;;;;;;4963557;28;20291;-79
2022/12/03 06:16:39;;;;;;;29.50;15.77;;;0.20;99.90;;;;;;4952944;28;20290;-80
2022/12/03 06:19:06;;;;;;;28.70;15.97;;;0.20;99.90;;;;;;4973896;28;20249;-80
2022/12/03 06:21:33;;;;;;;31.03;15.33;;;0.10;99.90;;;;;;4975956;28;20242;-80
2022/12/03 06:24:00;;;;;;;31.23;16.33;;;0.10;99.90;;;;;;4958697;28;20777;-80
2022/12/03 06:26:28;;;;;;;29.70;16.13;;;0.10;99.90;;;;;;4959853;28;20299;-80
2022/12/03 06:28:55;;;;;;;27.80;16.23;;;0.10;99.90;;;;;;4959384;28;20236;-80
2022/12/03 06:31:23;;;;;;;31.73;17.50;;;0.00;99.90;;;;;;4955329;28;20236;-80
2022/12/03 06:33:50;;;;;;;29.83;16.60;;;0.00;99.90;;;;;;4957852;28;20316;-80
2022/12/03 06:36:17;;;;;;;32.10;16.70;;;0.00;99.90;;;;;;4963296;28;20222;-80
2022/12/03 06:38:44;;;;;;;30.30;16.43;;;0.00;99.90;;;;;;4962784;28;20600;-80
2022/12/03 06:41:10;;;;;;;32.07;17.03;;;0.00;99.90;;;;;;4957218;28;20227;-80
2022/12/03 06:43:37;;;;;;;30.30;16.77;;;0.00;99.90;;;;;;4958024;28;20257;-79
2022/12/03 06:46:04;;;;;;;31.77;16.23;;;0.00;99.90;;;;;;4957884;28;20223;-79
2022/12/03 06:48:32;;;;;;;31.80;15.87;;;0.00;99.90;;;;;;4973443;28;20343;-81
2022/12/03 06:50:59;;;;;;;29.90;15.67;;;0.00;99.90;;;;;;4956812;28;20671;-80
2022/12/03 06:53:26;;;;;;;29.60;15.90;;;0.00;99.90;;;;;;4959640;28;20250;-79
2022/12/03 06:55:53;;;;;;;33.80;17.80;;;0.00;99.90;;;;;;4958106;28;20334;-79
2022/12/03 06:58:19;;;;;;;35.30;17.73;;;0.00;99.90;;;;;;4957318;28;20237;-79
2022/12/03 07:00:46;;;;;;;35.60;17.63;;;0.00;99.90;;;;;;4959200;28;20706;-79
2022/12/03 07:03:13;;;;;;;32.37;17.23;;;0.00;99.90;;;;;;4957436;28;20236;-80
2022/12/03 07:05:41;;;;;;;30.50;16.30;;;0.10;99.90;;;;;;4963756;28;20710;-80
2022/12/03 07:08:08;;;;;;;31.87;16.97;;;0.00;99.90;;;;;;4964204;28;20238;-80
2022/12/03 07:10:37;;;;;;;29.60;16.57;;;0.00;99.90;;;;;;4963737;28;20346;-80
2022/12/03 07:13:03;;;;;;;32.57;17.17;;;0.00;99.90;;;;;;4968897;28;20226;-81
2022/12/03 07:15:30;;;;;;;31.47;16.80;;;0.10;99.90;;;;;;4962631;28;20238;-81
2022/12/03 07:17:57;;;;;;;33.57;16.93;;;0.10;99.90;;;;;;4963197;28;20638;-80
2022/12/03 07:20:23;;;;;;;32.93;18.17;;;0.10;99.90;;;;;;4961898;28;20719;-81
2022/12/03 07:22:51;;;;;;;32.57;17.40;;;0.10;99.90;;;;;;4960309;28;20246;-81
2022/12/03 07:25:18;;;;;;;34.03;17.10;;;0.10;99.90;;;;;;4966572;28;20226;-80
2022/12/03 07:27:45;;;;;;;34.03;18.43;;;0.20;99.90;;;;;;4956800;28;20256;-80
2022/12/03 07:30:14;;;;;;;33.00;16.47;;;0.10;99.90;;;;;;4963983;28;20585;-82
2022/12/03 07:32:43;;;;;;;32.03;17.63;;;0.20;99.90;;;;;;4960913;28;20242;-80
2022/12/03 07:35:12;;;;;;;32.07;17.80;;;0.20;99.90;;;;;;4961949;28;20225;-80
2022/12/03 07:37:38;;;;;;;32.00;17.03;;;0.20;99.90;;;;;;4956890;28;20228;-81
2022/12/03 07:40:08;;;;;;;31.07;16.00;;;0.20;99.90;;;;;;4967395;28;20223;-80
2022/12/03 07:42:35;;;;;;;35.20;18.70;;;0.20;99.90;;;;;;4963013;28;20233;-81
2022/12/03 07:45:02;;;;;;;35.17;17.93;;;0.10;99.90;;;;;;4963923;28;20239;-81
2022/12/03 07:47:28;;;;;;;30.67;16.70;;;0.10;99.90;;;;;;4966179;28;20233;-81
2022/12/03 07:49:55;;;;;;;35.83;18.43;;;0.20;99.90;;;;;;4959434;28;20227;-80
2022/12/03 07:52:22;;;;;;;38.40;18.60;;;0.10;99.90;;;;;;4961826;28;20223;-81
2022/12/03 07:54:48;;;;;;;36.13;17.80;;;0.10;99.90;;;;;;4963096;28;20230;-81
2022/12/03 07:57:16;;;;;;;33.47;18.13;;;0.10;99.90;;;;;;4952767;28;20225;-80
2022/12/03 07:59:43;;;;;;;35.33;18.07;;;0.10;99.90;;;;;;4964546;28;20340;-81
2022/12/03 08:02:10;;;;;;;35.43;18.10;;;0.10;99.90;;;;;;4961925;28;20603;-81
2022/12/03 08:04:36;;;;;;;30.00;17.63;;;0.10;99.90;;;;;;4967473;28;20253;-81
2022/12/03 08:07:03;;;;;;;38.47;19.33;;;0.20;99.90;;;;;;4957017;28;20230;-84
2022/12/03 08:09:30;;;;;;;35.47;17.47;;;0.20;99.90;;;;;;4964887;28;20237;-83
2022/12/03 08:12:06;;;;;;;36.30;18.23;;;0.30;99.90;;;;;;4967097;28;20694;-84
2022/12/03 08:14:36;;;;;;;33.90;16.90;;;0.20;99.90;;;;;;4961902;28;20309;-84
2022/12/03 08:17:09;;;;;;;35.60;18.57;;;0.30;99.90;;;;;;4955195;28;20233;-82
2022/12/03 08:19:36;;;;;;;33.47;17.23;;;0.30;99.90;;;;;;4962023;28;20232;-81
2022/12/03 08:22:09;;;;;;;33.57;17.47;;;0.30;99.90;;;;;;4961020;28;20335;-81
2022/12/03 08:24:35;;;;;;;36.47;18.77;;;0.30;99.90;;;;;;4962896;28;20716;-84
2022/12/03 08:27:02;;;;;;;37.87;17.37;;;0.40;99.90;;;;;;4962614;28;20230;-83
2022/12/03 08:29:31;;;;;;;33.10;17.37;;;0.40;99.90;;;;;;4964575;28;20230;-83
2022/12/03 08:31:59;;;;;;;37.97;18.57;;;0.50;99.90;;;;;;4962292;28;20747;-83
2022/12/03 08:34:37;;;;;;;36.17;18.00;;;0.50;99.90;;;;;;4958581;28;21073;-82
2022/12/03 08:37:13;;;;;;;31.60;17.30;;;0.60;99.90;;;;;;4960305;28;20230;-82
2022/12/03 08:39:43;;;;;;;35.30;18.20;;;0.60;99.90;;;;;;4957307;28;20255;-82
2022/12/03 08:45:40;;;;;;;39.73;19.30;;;0.70;99.90;;;;;;4963413;28;20229;-82
2022/12/03 08:48:26;;;;;;;38.30;18.93;;;0.80;99.90;;;;;;4965451;28;20615;-80
2022/12/03 08:50:54;;;;;;;31.53;18.07;;;1.00;99.90;;;;;;4970532;28;20289;-82
2022/12/03 08:53:29;;;;;;;37.80;18.30;;;1.00;99.90;;;;;;4966081;28;20225;-81
2022/12/03 08:55:57;;;;;;;36.80;19.93;;;1.10;99.90;;;;;;4972724;28;20221;-81
2022/12/03 08:58:26;;;;;;;35.83;18.80;;;1.10;99.90;;;;;;4965827;28;20228;-81
2022/12/03 09:01:00;;;;;;;36.07;18.40;;;1.20;99.90;;;;;;4965275;28;20234;-81
2022/12/03 09:03:31;;;;;;;34.13;18.87;;;1.30;99.90;;;;;;4956594;28;20229;-83
2022/12/03 09:05:59;;;;;;;32.70;17.67;;;1.40;99.90;;;;;;4966308;28;20228;-83
2022/12/03 09:08:28;;;;;;;35.97;17.73;;;1.50;99.90;;;;;;4962745;28;20222;-81
2022/12/03 09:10:55;;;;;;;33.73;17.27;;;1.60;99.90;;;;;;4967870;28;20221;-81
2022/12/03 09:13:22;;;;;;;33.90;16.97;;;1.80;99.90;;;;;;4966548;28;20273;-81
2022/12/03 09:15:49;;;;;;;32.10;18.37;;;1.90;99.90;;;;;;4972569;28;20289;-81
2022/12/03 09:18:15;;;;;;;34.70;18.10;;;2.00;99.90;;;;;;4965300;28;20231;-78
2022/12/03 09:20:43;;;;;;;32.67;17.37;;;2.10;99.90;;;;;;4969217;28;20262;-78
2022/12/03 09:23:10;;;;;;;33.53;17.00;;;2.30;99.90;;;;;;4969569;28;20226;-78
2022/12/03 09:25:37;;;;;;;29.90;16.60;;;2.50;99.90;;;;;;4969047;28;20217;-78
2022/12/03 09:28:04;;;;;;;28.97;16.13;;;2.60;99.90;;;;;;4967348;28;20365;-78
2022/12/03 09:30:31;;;;;;;28.63;16.63;;;2.70;99.90;;;;;;4970377;28;20237;-78
2022/12/03 09:32:58;;;;;;;30.50;16.80;;;2.70;99.90;;;;;;4968228;28;20234;-78
2022/12/03 09:35:25;;;;;;;33.60;17.70;;;2.60;99.90;;;;;;4973229;28;20646;-78
2022/12/03 09:37:53;;;;;;;29.40;16.50;;;2.60;99.90;;;;;;4970051;28;20645;-78
2022/12/03 09:40:20;;;;;;;31.97;17.37;;;2.50;99.90;;;;;;4969861;28;20277;-78
2022/12/03 09:42:47;;;;;;;30.53;16.13;;;2.40;99.90;;;;;;4968501;28;20248;-78
2022/12/03 09:45:15;;;;;;;30.50;17.70;;;2.30;99.90;;;;;;4969600;28;20314;-79
2022/12/03 09:47:44;;;;;;;35.37;18.70;;;2.20;99.90;;;;;;4966037;28;20732;-78
2022/12/03 09:50:14;;;;;;;34.07;19.60;;;2.10;99.90;;;;;;4961317;28;20228;-78
2022/12/03 09:52:41;;;;;;;30.13;15.97;;;2.10;99.90;;;;;;4958563;28;20269;-78
2022/12/03 09:55:16;;;;;;;31.73;16.53;;;2.00;99.90;;;;;;4965803;28;20523;-78
2022/12/03 09:57:42;;;;;;;30.37;17.10;;;2.00;99.90;;;;;;4952667;28;20243;-78
2022/12/03 10:00:17;;;;;;;31.90;16.63;;;2.00;99.90;;;;;;4963657;28;20230;-78
2022/12/03 10:02:45;;;;;;;31.23;16.83;;;1.90;99.90;;;;;;4984945;23;20234;-75
2022/12/03 10:05:12;;;;;;;35.50;16.57;;;2.00;99.90;;;;;;4994890;28;20260;-75
2022/12/03 10:07:39;;;;;;;30.47;16.60;;;2.00;99.90;;;;;;4980380;28;20637;-75
2022/12/03 10:10:14;;;;;;;30.60;16.90;;;2.00;99.90;;;;;;4988460;28;20221;-75
2022/12/03 10:12:42;;;;;;;30.80;16.37;;;2.00;99.90;;;;;;4989945;28;20223;-75
2022/12/03 10:15:12;;;;;;;27.27;15.20;;;2.00;99.90;;;;;;4983877;28;20214;-75
2022/12/03 10:17:39;;;;;;;27.77;15.77;;;2.00;99.90;;;;;;4991216;28;20763;-75
2022/12/03 10:20:07;;;;;;;25.60;15.20;;;2.00;99.90;;;;;;4989034;28;20244;-75
2022/12/03 10:22:36;;;;;;;28.90;15.33;;;2.00;99.90;;;;;;4992665;28;20233;-75
2022/12/03 10:25:08;;;;;;;22.80;13.70;;;2.00;99.90;;;;;;4981131;28;20263;-75
2022/12/03 10:27:35;;;;;;;28.67;15.10;;;2.00;99.90;;;;;;4981223;28;20661;-75
2022/12/03 10:30:14;;;;;;;27.63;15.43;;;2.00;99.90;;;;;;4991558;28;20292;-75
2022/12/03 10:32:42;;;;;;;26.57;14.50;;;2.00;99.90;;;;;;4972582;28;20230;-75
2022/12/03 10:35:12;;;;;;;24.80;14.90;;;2.00;99.90;;;;;;4971154;28;20222;-75
2022/12/03 10:37:57;;;;;;;24.33;13.80;;;2.00;99.90;;;;;;4984317;28;20723;-74
2022/12/03 10:40:26;;;;;;;24.77;14.73;;;2.00;99.90;;;;;;4983926;28;20756;-75
2022/12/03 10:43:11;;;;;;;25.77;15.00;;;2.00;99.90;;;;;;4987726;28;20337;-75
2022/12/03 10:45:40;;;;;;;28.50;15.03;;;1.90;99.90;;;;;;4983618;28;20229;-75
2022/12/03 10:48:12;;;;;;;31.43;15.83;;;2.00;99.90;;;;;;4983524;28;20674;-75
2022/12/03 10:50:50;;;;;;;27.77;15.83;;;2.00;99.90;;;;;;4983631;28;20234;-75
2022/12/03 10:53:18;;;;;;;29.57;15.07;;;2.00;99.90;;;;;;4982720;28;20240;-75
2022/12/03 10:55:46;;;;;;;30.20;15.67;;;2.10;99.90;;;;;;4982853;28;20236;-76
2022/12/03 10:58:21;;;;;;;24.80;15.23;;;2.10;99.90;;;;;;4976263;28;20248;-75
2022/12/03 11:00:50;;;;;;;29.53;15.70;;;2.00;99.90;;;;;;4980329;28;20639;-76
2022/12/03 11:03:20;;;;;;;27.87;15.43;;;2.10;99.90;;;;;;4970159;28;20598;-75
2022/12/03 11:05:46;;;;;;;28.03;15.50;;;2.10;99.90;;;;;;4976383;28;20233;-75
2022/12/03 11:08:19;;;;;;;27.87;15.30;;;2.10;99.90;;;;;;4979730;28;20299;-75
2022/12/03 11:10:55;;;;;;;27.90;15.10;;;2.10;99.90;;;;;;4985099;28;20233;-76
2022/12/03 11:13:44;;;;;;;25.67;14.93;;;2.10;99.90;;;;;;4989880;28;20232;-75
2022/12/03 11:16:12;;;;;;;26.50;16.23;;;2.20;99.90;;;;;;4981958;28;20223;-76
2022/12/03 11:18:59;;;;;;;29.13;16.23;;;2.20;99.90;;;;;;4981194;28;20225;-76
2022/12/03 11:21:26;;;;;;;28.60;15.13;;;2.30;99.90;;;;;;4977612;28;21095;-76
2022/12/03 11:24:18;;;;;;;26.50;15.70;;;2.30;99.90;;;;;;4981780;28;20310;-75
2022/12/03 11:27:24;;;;;;;26.80;15.00;;;2.30;99.90;;;;;;4977780;28;20236;-75
2022/12/03 11:29:59;;;;;;;23.73;14.60;;;2.40;99.90;;;;;;4982656;28;20299;-75
2022/12/03 11:33:01;;;;;;;28.00;14.77;;;2.50;99.90;;;;;;4980611;28;20248;-76
2022/12/03 11:35:35;;;;;;;28.50;15.27;;;2.50;99.90;;;;;;4978877;28;20222;-76
2022/12/03 11:38:35;;;;;;;27.13;14.80;;;2.60;99.90;;;;;;4979083;28;20657;-76
2022/12/03 11:41:12;;;;;;;28.60;15.13;;;2.60;99.90;;;;;;4976087;28;20228;-76
2022/12/03 11:44:02;;;;;;;27.93;15.33;;;2.60;99.90;;;;;;4977353;28;20279;-76
2022/12/03 11:46:39;;;;;;;25.40;14.57;;;2.60;99.90;;;;;;4976075;28;20281;-76
2022/12/03 11:49:26;;;;;;;24.73;13.50;;;2.60;99.90;;;;;;4977160;28;20304;-76
2022/12/03 11:52:27;;;;;;;23.70;14.07;;;2.60;99.90;;;;;;4918911;28;20244;-76
2022/12/03 11:54:59;;;;;;;25.10;14.17;;;2.70;99.90;;;;;;4962538;28;20272;-76
2022/12/03 11:57:30;;;;;;;25.87;14.80;;;2.70;99.90;;;;;;4976880;28;20219;-76
2022/12/03 11:59:59;;;;;;;23.20;14.67;;;2.60;99.90;;;;;;4982669;28;20226;-76
2022/12/03 12:02:25;;;;;;;24.80;14.37;;;2.60;99.90;;;;;;4977150;28;20229;-76
2022/12/03 12:04:53;;;;;;;27.67;15.30;;;2.60;99.90;;;;;;4974922;28;20251;-76
2022/12/03 12:07:33;;;;;;;27.60;14.87;;;2.60;99.90;;;;;;4977621;28;20226;-76
2022/12/03 12:10:00;;;;;;;24.23;14.37;;;2.50;99.90;;;;;;4978766;28;20223;-76
2022/12/03 12:12:30;;;;;;;25.93;14.17;;;2.50;99.90;;;;;;4974896;28;20221;-76
2022/12/03 12:14:57;;;;;;;25.93;15.17;;;2.50;99.90;;;;;;4976485;28;20233;-76
2022/12/03 12:17:35;;;;;;;25.23;14.20;;;2.50;99.90;;;;;;4978523;28;20260;-76
2022/12/03 12:20:22;;;;;;;25.33;14.03;;;2.50;99.90;;;;;;4979385;28;20309;-76
2022/12/03 12:22:49;;;;;;;24.17;14.23;;;2.40;99.90;;;;;;4982193;28;20226;-76
2022/12/03 12:25:37;;;;;;;25.93;14.30;;;2.40;99.90;;;;;;4976417;28;20228;-76
2022/12/03 12:28:03;;;;;;;22.67;13.57;;;2.40;99.90;;;;;;4971240;28;20758;-76
2022/12/03 12:30:30;;;;;;;23.07;13.23;;;2.40;99.90;;;;;;4983718;28;20239;-76
2022/12/03 12:33:11;;;;;;;25.53;14.03;;;2.40;99.90;;;;;;4976965;28;20225;-76
2022/12/03 12:35:41;;;;;;;25.90;13.60;;;2.40;99.90;;;;;;4977248;28;20217;-76
2022/12/03 12:38:15;;;;;;;23.87;14.10;;;2.40;99.90;;;;;;4978633;28;20218;-76
2022/12/03 12:40:44;;;;;;;27.70;14.40;;;2.40;99.90;;;;;;4988056;28;20252;-76
2022/12/03 12:43:23;;;;;;;24.60;14.13;;;2.40;99.90;;;;;;4980350;28;20301;-76
2022/12/03 12:45:50;;;;;;;26.43;14.30;;;2.40;99.90;;;;;;4978193;28;20312;-76
2022/12/03 12:48:24;;;;;;;26.30;14.30;;;2.40;99.90;;;;;;4977606;28;21616;-76
2022/12/03 12:50:59;;;;;;;27.07;15.27;;;2.40;99.90;;;;;;4979354;28;20241;-76
2022/12/03 12:53:27;;;;;;;24.80;13.97;;;2.40;99.90;;;;;;4980060;28;20321;-76
2022/12/03 12:55:56;;;;;;;26.60;15.43;;;2.40;99.90;;;;;;4977460;28;20223;-78
2022/12/03 12:58:24;;;;;;;26.53;14.10;;;2.40;99.90;;;;;;4974664;28;20219;-75
2022/12/03 13:00:53;;;;;;;27.10;14.17;;;2.40;99.90;;;;;;4977871;28;20229;-75
2022/12/03 13:03:22;;;;;;;27.27;13.97;;;2.40;99.90;;;;;;4973309;28;20874;-76
2022/12/03 13:05:51;;;;;;;26.47;14.33;;;2.40;99.90;;;;;;4980804;28;20227;-75
2022/12/03 13:08:26;;;;;;;26.43;14.10;;;2.40;99.90;;;;;;4981353;28;20316;-76
2022/12/03 13:10:53;;;;;;;24.63;14.33;;;2.40;99.90;;;;;;4973742;28;20239;-76